sensor_id;sensor_type;location;lat;lon;timestamp;pressure;altitude;pressure_sealevel;temperature;humidity
38253;BME280;24785;52.372;20.672;2023-07-09T00:04:18;101153.31;;;15.82;87.04
38253;BME280;24785;52.372;20.672;2023-07-09T00:14:20;101158.19;;;15.61;88.95
38253;BME280;24785;52.372;20.672;2023-07-09T00:24:21;101152.28;;;15.54;90.94
38253;BME280;24785;52.372;20.672;2023-07-09T00:34:22;101154.28;;;15.43;91.96
38253;BME280;24785;52.372;20.672;2023-07-09T00:44:29;101154.09;;;15.11;95.50
38253;BME280;24785;52.372;20.672;2023-07-09T00:54:32;101160.59;;;14.81;98.82
38253;BME280;24785;52.372;20.672;2023-07-09T01:04:37;101160.47;;;14.67;100.00
38253;BME280;24785;52.372;20.672;2023-07-09T01:14:39;101147.22;;;14.32;100.00
38253;BME280;24785;52.372;20.672;2023-07-09T01:34:52;101163.22;;;13.59;100.00
38253;BME280;24785;52.372;20.672;2023-07-09T01:44:55;101156.25;;;13.52;100.00
38253;BME280;24785;52.372;20.672;2023-07-09T01:54:56;101158.72;;;13.39;100.00
38253;BME280;24785;52.372;20.672;2023-07-09T02:04:56;101166.31;;;12.96;100.00
38253;BME280;24785;52.372;20.672;2023-07-09T02:14:57;101169.81;;;12.86;100.00
38253;BME280;24785;52.372;20.672;2023-07-09T02:24:58;101172.50;;;12.61;100.00
38253;BME280;24785;52.372;20.672;2023-07-09T02:34:59;101169.53;;;12.47;100.00
38253;BME280;24785;52.372;20.672;2023-07-09T02:45:00;101182.97;;;12.42;100.00
38253;BME280;24785;52.372;20.672;2023-07-09T02:55:01;101194.78;;;12.31;100.00
38253;BME280;24785;52.372;20.672;2023-07-09T03:05:01;101188.09;;;12.59;100.00
38253;BME280;24785;52.372;20.672;2023-07-09T03:15:02;101207.47;;;13.27;100.00
38253;BME280;24785;52.372;20.672;2023-07-09T03:25:03;101215.06;;;14.49;100.00
38253;BME280;24785;52.372;20.672;2023-07-09T03:35:04;101195.03;;;17.90;86.09
38253;BME280;24785;52.372;20.672;2023-07-09T03:45:05;101199.06;;;19.89;68.27
38253;BME280;24785;52.372;20.672;2023-07-09T03:55:06;101190.28;;;20.26;64.43
38253;BME280;24785;52.372;20.672;2023-07-09T04:05:07;101190.50;;;20.47;63.14
38253;BME280;24785;52.372;20.672;2023-07-09T04:15:11;101202.19;;;20.48;61.55
38253;BME280;24785;52.372;20.672;2023-07-09T04:25:15;101216.53;;;21.00;60.20
38253;BME280;24785;52.372;20.672;2023-07-09T04:35:16;101226.31;;;21.01;59.43
38253;BME280;24785;52.372;20.672;2023-07-09T04:45:17;101223.78;;;20.87;59.27
38253;BME280;24785;52.372;20.672;2023-07-09T04:55:18;101212.81;;;21.60;57.07
38253;BME280;24785;52.372;20.672;2023-07-09T05:05:19;101223.44;;;21.53;57.08
38253;BME280;24785;52.372;20.672;2023-07-09T05:15:20;101238.31;;;19.65;62.84
38253;BME280;24785;52.372;20.672;2023-07-09T05:25:22;101241.31;;;19.95;63.87
38253;BME280;24785;52.372;20.672;2023-07-09T05:35:23;101242.84;;;19.78;64.14
38253;BME280;24785;52.372;20.672;2023-07-09T05:45:24;101243.09;;;19.99;62.32
38253;BME280;24785;52.372;20.672;2023-07-09T05:55:25;101249.56;;;19.72;62.01
38253;BME280;24785;52.372;20.672;2023-07-09T06:05:25;101252.38;;;19.98;61.07
38253;BME280;24785;52.372;20.672;2023-07-09T06:15:26;101230.94;;;20.31;60.96
38253;BME280;24785;52.372;20.672;2023-07-09T06:25:27;101241.38;;;20.98;59.09
38253;BME280;24785;52.372;20.672;2023-07-09T06:35:28;101248.28;;;20.35;59.08
38253;BME280;24785;52.372;20.672;2023-07-09T06:45:28;101254.03;;;20.77;58.37
38253;BME280;24785;52.372;20.672;2023-07-09T06:55:29;101246.19;;;20.75;57.23
38253;BME280;24785;52.372;20.672;2023-07-09T07:05:31;101269.25;;;21.13;57.29
38253;BME280;24785;52.372;20.672;2023-07-09T07:15:32;101253.22;;;21.02;56.85
38253;BME280;24785;52.372;20.672;2023-07-09T07:25:33;101245.56;;;21.60;55.60
38253;BME280;24785;52.372;20.672;2023-07-09T07:35:34;101236.81;;;21.75;54.26
38253;BME280;24785;52.372;20.672;2023-07-09T07:45:34;101227.88;;;21.66;51.84
38253;BME280;24785;52.372;20.672;2023-07-09T07:55:35;101230.94;;;22.44;49.90
38253;BME280;24785;52.372;20.672;2023-07-09T08:05:37;101232.78;;;22.52;48.12
38253;BME280;24785;52.372;20.672;2023-07-09T08:15:38;101238.56;;;22.09;49.58
38253;BME280;24785;52.372;20.672;2023-07-09T08:25:38;101219.75;;;22.37;48.82
38253;BME280;24785;52.372;20.672;2023-07-09T08:35:42;101209.88;;;22.86;46.60
38253;BME280;24785;52.372;20.672;2023-07-09T08:56:03;101195.72;;;23.30;38.40
38253;BME280;24785;52.372;20.672;2023-07-09T09:06:14;101199.03;;;23.60;41.08
38253;BME280;24785;52.372;20.672;2023-07-09T09:16:26;101191.28;;;23.49;40.65
38253;BME280;24785;52.372;20.672;2023-07-09T09:36:29;101188.72;;;24.30;37.51
38253;BME280;24785;52.372;20.672;2023-07-09T09:46:30;101186.31;;;24.56;38.22
38253;BME280;24785;52.372;20.672;2023-07-09T09:56:36;101182.56;;;24.48;36.44
38253;BME280;24785;52.372;20.672;2023-07-09T10:06:38;101182.31;;;24.54;38.05
38253;BME280;24785;52.372;20.672;2023-07-09T10:16:42;101170.91;;;24.95;36.20
38253;BME280;24785;52.372;20.672;2023-07-09T10:26:49;101174.31;;;25.04;36.96
38253;BME280;24785;52.372;20.672;2023-07-09T10:47:04;101160.66;;;24.92;36.51
38253;BME280;24785;52.372;20.672;2023-07-09T10:57:17;101164.38;;;25.79;35.38
38253;BME280;24785;52.372;20.672;2023-07-09T11:07:27;101156.94;;;25.79;35.07
38253;BME280;24785;52.372;20.672;2023-07-09T11:17:31;101143.63;;;26.35;33.76
38253;BME280;24785;52.372;20.672;2023-07-09T11:27:33;101148.19;;;25.93;33.43
38253;BME280;24785;52.372;20.672;2023-07-09T11:37:45;101139.16;;;25.73;32.65
38253;BME280;24785;52.372;20.672;2023-07-09T11:47:49;101131.88;;;26.19;32.25
38253;BME280;24785;52.372;20.672;2023-07-09T12:07:56;101115.09;;;26.44;31.89
38253;BME280;24785;52.372;20.672;2023-07-09T12:18:02;101106.72;;;26.37;31.48
38253;BME280;24785;52.372;20.672;2023-07-09T12:28:03;101103.31;;;26.24;32.17
38253;BME280;24785;52.372;20.672;2023-07-09T12:38:10;101098.69;;;26.28;32.14
38253;BME280;24785;52.372;20.672;2023-07-09T12:48:16;101090.25;;;26.37;32.90
38253;BME280;24785;52.372;20.672;2023-07-09T12:58:21;101104.13;;;26.44;32.35
38253;BME280;24785;52.372;20.672;2023-07-09T13:08:24;101101.47;;;26.70;31.05
38253;BME280;24785;52.372;20.672;2023-07-09T13:18:25;101089.50;;;27.05;30.44
38253;BME280;24785;52.372;20.672;2023-07-09T13:28:27;101071.25;;;27.46;28.95
38253;BME280;24785;52.372;20.672;2023-07-09T13:38:28;101083.19;;;26.58;30.07
38253;BME280;24785;52.372;20.672;2023-07-09T13:48:30;101073.94;;;27.42;29.68
38253;BME280;24785;52.372;20.672;2023-07-09T13:58:32;101069.84;;;27.59;29.95
38253;BME280;24785;52.372;20.672;2023-07-09T14:08:33;101052.53;;;27.58;30.54
38253;BME280;24785;52.372;20.672;2023-07-09T14:18:33;101056.44;;;27.01;30.79
38253;BME280;24785;52.372;20.672;2023-07-09T14:28:34;101045.19;;;27.10;31.75
38253;BME280;24785;52.372;20.672;2023-07-09T14:38:36;101062.06;;;27.08;31.89
38253;BME280;24785;52.372;20.672;2023-07-09T14:48:37;101049.19;;;27.72;31.10
38253;BME280;24785;52.372;20.672;2023-07-09T14:58:38;101049.69;;;28.93;29.82
38253;BME280;24785;52.372;20.672;2023-07-09T15:08:39;101034.00;;;28.19;30.38
38253;BME280;24785;52.372;20.672;2023-07-09T15:18:40;101032.59;;;27.65;29.75
38253;BME280;24785;52.372;20.672;2023-07-09T15:28:41;101031.28;;;29.98;27.38
38253;BME280;24785;52.372;20.672;2023-07-09T15:38:42;101007.59;;;31.43;25.85
38253;BME280;24785;52.372;20.672;2023-07-09T15:48:43;101002.56;;;30.88;25.34
38253;BME280;24785;52.372;20.672;2023-07-09T15:58:44;101026.03;;;27.77;29.83
38253;BME280;24785;52.372;20.672;2023-07-09T16:08:46;101012.00;;;27.55;30.48
38253;BME280;24785;52.372;20.672;2023-07-09T16:18:47;101010.59;;;26.86;31.36
38253;BME280;24785;52.372;20.672;2023-07-09T16:28:48;101007.56;;;26.68;31.85
38253;BME280;24785;52.372;20.672;2023-07-09T16:38:49;101005.09;;;26.59;31.73
38253;BME280;24785;52.372;20.672;2023-07-09T16:48:50;101011.25;;;26.53;32.48
38253;BME280;24785;52.372;20.672;2023-07-09T16:58:51;101009.59;;;26.97;32.25
38253;BME280;24785;52.372;20.672;2023-07-09T17:08:52;101009.69;;;26.78;32.50
38253;BME280;24785;52.372;20.672;2023-07-09T17:18:53;101018.53;;;26.22;32.91
38253;BME280;24785;52.372;20.672;2023-07-09T17:28:54;101031.16;;;26.27;32.75
38253;BME280;24785;52.372;20.672;2023-07-09T17:38:55;101035.56;;;25.89;33.32
38253;BME280;24785;52.372;20.672;2023-07-09T17:48:55;101042.00;;;25.42;34.72
38253;BME280;24785;52.372;20.672;2023-07-09T17:58:56;101051.09;;;24.96;36.60
38253;BME280;24785;52.372;20.672;2023-07-09T18:08:57;101052.31;;;24.51;37.66
38253;BME280;24785;52.372;20.672;2023-07-09T18:18:58;101048.66;;;24.03;39.24
38253;BME280;24785;52.372;20.672;2023-07-09T18:29:04;101049.94;;;23.53;40.80
38253;BME280;24785;52.372;20.672;2023-07-09T18:39:09;101060.81;;;23.01;42.02
38253;BME280;24785;52.372;20.672;2023-07-09T18:49:10;101071.53;;;22.49;44.17
38253;BME280;24785;52.372;20.672;2023-07-09T18:59:12;101074.41;;;21.98;45.55
38253;BME280;24785;52.372;20.672;2023-07-09T19:09:18;101081.09;;;21.39;47.83
38253;BME280;24785;52.372;20.672;2023-07-09T19:19:20;101086.88;;;20.52;51.35
38253;BME280;24785;52.372;20.672;2023-07-09T19:29:22;101095.03;;;19.74;53.75
38253;BME280;24785;52.372;20.672;2023-07-09T19:39:28;101094.56;;;19.15;56.57
38253;BME280;24785;52.372;20.672;2023-07-09T19:49:29;101106.41;;;18.58;59.16
38253;BME280;24785;52.372;20.672;2023-07-09T19:59:30;101107.75;;;17.88;61.39
38253;BME280;24785;52.372;20.672;2023-07-09T20:09:31;101110.94;;;17.54;64.89
38253;BME280;24785;52.372;20.672;2023-07-09T20:19:32;101133.72;;;17.25;67.45
38253;BME280;24785;52.372;20.672;2023-07-09T20:29:34;101127.13;;;16.85;70.21
38253;BME280;24785;52.372;20.672;2023-07-09T20:39:36;101143.22;;;16.44;73.09
38253;BME280;24785;52.372;20.672;2023-07-09T20:49:37;101166.06;;;16.19;77.82
38253;BME280;24785;52.372;20.672;2023-07-09T20:59:37;101154.56;;;15.90;81.06
38253;BME280;24785;52.372;20.672;2023-07-09T21:09:38;101164.69;;;15.31;85.62
38253;BME280;24785;52.372;20.672;2023-07-09T21:19:39;101171.88;;;14.88;88.15
38253;BME280;24785;52.372;20.672;2023-07-09T21:29:40;101166.94;;;14.95;88.40
38253;BME280;24785;52.372;20.672;2023-07-09T21:39:41;101186.78;;;14.80;92.07
38253;BME280;24785;52.372;20.672;2023-07-09T21:49:42;101191.28;;;14.56;95.59
38253;BME280;24785;52.372;20.672;2023-07-09T21:59:44;101192.19;;;14.36;99.50
38253;BME280;24785;52.372;20.672;2023-07-09T22:09:45;101194.75;;;14.12;100.00
38253;BME280;24785;52.372;20.672;2023-07-09T22:19:46;101193.22;;;13.96;100.00
38253;BME280;24785;52.372;20.672;2023-07-09T22:29:46;101195.50;;;13.74;100.00
38253;BME280;24785;52.372;20.672;2023-07-09T22:39:47;101190.47;;;13.47;100.00
38253;BME280;24785;52.372;20.672;2023-07-09T22:49:48;101191.56;;;13.15;100.00
38253;BME280;24785;52.372;20.672;2023-07-09T22:59:49;101201.53;;;13.00;100.00
38253;BME280;24785;52.372;20.672;2023-07-09T23:09:49;101209.34;;;12.86;100.00
38253;BME280;24785;52.372;20.672;2023-07-09T23:19:50;101208.81;;;12.84;100.00
38253;BME280;24785;52.372;20.672;2023-07-09T23:29:51;101194.00;;;12.61;100.00
38253;BME280;24785;52.372;20.672;2023-07-09T23:39:51;101187.00;;;12.45;100.00
38253;BME280;24785;52.372;20.672;2023-07-09T23:49:52;101181.38;;;12.41;100.00
38253;BME280;24785;52.372;20.672;2023-07-09T23:59:53;101177.00;;;12.20;100.00
